Time;durP1;ratioP1;P1;durP2;ratioP2;P2;SDS_P1;SDS_P2;PMS_P1;PMS_P2;Temp;Humidity;BMP_temperature;BMP_pressure;BME280_temperature;BME280_humidity;BME280_pressure;Samples;Min_cycle;Max_cycle;Signal;HPM_P1;HPM_P2
2024/02/08 00:00:10;;;;;;;6.63;5.90;;;;;;;;;;5097253;28;20200;-88
2024/02/08 00:02:37;;;;;;;6.73;5.57;;;;;;;;;;5115164;28;20203;-87
2024/02/08 00:05:06;;;;;;;9.33;7.53;;;;;;;;;;5115372;28;20195;-88
2024/02/08 00:07:33;;;;;;;12.93;9.57;;;;;;;;;;5115817;28;20681;-89
2024/02/08 00:10:07;;;;;;;12.97;7.60;;;;;;;;;;5097359;28;20583;-88
2024/02/08 00:12:35;;;;;;;9.77;7.20;;;;;;;;;;5115453;28;20256;-88
2024/02/08 00:15:09;;;;;;;7.57;6.20;;;;;;;;;;5097272;28;20200;-88
2024/02/08 00:17:36;;;;;;;8.83;5.50;;;;;;;;;;5115435;28;20598;-88
2024/02/08 00:20:07;;;;;;;6.40;5.30;;;;;;;;;;5114790;28;20208;-88
2024/02/08 00:22:34;;;;;;;6.33;5.73;;;;;;;;;;5109677;28;20675;-88
2024/02/08 00:25:04;;;;;;;6.53;4.90;;;;;;;;;;5060002;28;20240;-89
2024/02/08 00:27:31;;;;;;;8.23;5.10;;;;;;;;;;5094138;28;20671;-88
2024/02/08 00:30:01;;;;;;;6.33;5.07;;;;;;;;;;5076043;28;20221;-88
2024/02/08 00:32:30;;;;;;;8.53;5.07;;;;;;;;;;5094503;28;20224;-88
2024/02/08 00:34:57;;;;;;;7.00;4.83;;;;;;;;;;5076336;28;20196;-88
2024/02/08 00:37:23;;;;;;;7.57;5.47;;;;;;;;;;5093910;28;20220;-89
2024/02/08 00:39:50;;;;;;;5.33;4.63;;;;;;;;;;5093878;28;20204;-88
2024/02/08 00:42:17;;;;;;;4.83;4.30;;;;;;;;;;5076383;28;20258;-89
2024/02/08 00:44:44;;;;;;;7.37;4.57;;;;;;;;;;5076586;28;20207;-89
2024/02/08 00:47:11;;;;;;;6.87;4.27;;;;;;;;;;5094310;28;20211;-88
2024/02/08 00:49:39;;;;;;;6.23;4.43;;;;;;;;;;5094120;28;20208;-87
2024/02/08 00:52:08;;;;;;;8.47;4.83;;;;;;;;;;5094114;28;20208;-89
2024/02/08 00:54:35;;;;;;;5.67;4.90;;;;;;;;;;5093927;28;20299;-88
2024/02/08 00:57:07;;;;;;;8.17;4.90;;;;;;;;;;5092828;28;20281;-89
2024/02/08 00:59:37;;;;;;;6.20;4.40;;;;;;;;;;5093831;28;20200;-89
2024/02/08 01:02:04;;;;;;;5.77;3.73;;;;;;;;;;5076815;28;20590;-89
2024/02/08 01:04:31;;;;;;;5.47;3.53;;;;;;;;;;5076181;28;20262;-89
2024/02/08 01:06:59;;;;;;;6.37;4.03;;;;;;;;;;5075611;28;20201;-88
2024/02/08 01:09:26;;;;;;;8.07;4.50;;;;;;;;;;5093683;28;20209;-87
2024/02/08 01:11:53;;;;;;;8.13;5.10;;;;;;;;;;5075431;28;20230;-88
2024/02/08 01:14:21;;;;;;;7.37;5.17;;;;;;;;;;5075731;28;20203;-89
2024/02/08 01:16:54;;;;;;;4.20;3.80;;;;;;;;;;5093118;28;20210;-89
2024/02/08 01:19:22;;;;;;;5.97;4.10;;;;;;;;;;5059718;28;20228;-89
2024/02/08 01:21:49;;;;;;;11.43;7.30;;;;;;;;;;5075722;28;20291;-89
2024/02/08 01:24:19;;;;;;;4.77;3.73;;;;;;;;;;5093128;28;20211;-89
2024/02/08 01:26:46;;;;;;;5.63;4.20;;;;;;;;;;5075851;28;20204;-89
2024/02/08 01:29:13;;;;;;;6.10;4.37;;;;;;;;;;5075618;28;20290;-88
2024/02/08 01:31:40;;;;;;;7.10;5.27;;;;;;;;;;5058337;28;20624;-88
2024/02/08 01:34:07;;;;;;;6.10;4.53;;;;;;;;;;5092813;28;20204;-88
2024/02/08 01:36:35;;;;;;;4.73;4.27;;;;;;;;;;5093528;28;20570;-89
2024/02/08 01:39:06;;;;;;;7.23;4.80;;;;;;;;;;5092931;28;20722;-89
2024/02/08 01:41:35;;;;;;;6.00;4.50;;;;;;;;;;5075639;28;20204;-88
2024/02/08 01:44:07;;;;;;;27.53;16.57;;;;;;;;;;5075267;28;20675;-88
2024/02/08 01:46:38;;;;;;;23.83;15.33;;;;;;;;;;5058991;28;20211;-88
2024/02/08 01:49:05;;;;;;;11.87;8.77;;;;;;;;;;5075087;28;20574;-87
2024/02/08 01:51:34;;;;;;;10.20;5.43;;;;;;;;;;5074605;28;20204;-87
2024/02/08 01:54:04;;;;;;;6.40;4.83;;;;;;;;;;5091754;28;20254;-87
2024/02/08 01:56:31;;;;;;;6.03;4.80;;;;;;;;;;5092525;28;20694;-87
2024/02/08 01:59:00;;;;;;;5.50;4.50;;;;;;;;;;5092295;28;20585;-87
2024/02/08 02:01:27;;;;;;;10.07;7.10;;;;;;;;;;5092194;28;20204;-87
2024/02/08 02:03:54;;;;;;;9.60;7.20;;;;;;;;;;5057185;28;20208;-87
2024/02/08 02:06:21;;;;;;;16.07;10.47;;;;;;;;;;5092136;28;20788;-87
2024/02/08 02:08:57;;;;;;;8.47;6.90;;;;;;;;;;5091874;28;20200;-87
2024/02/08 02:11:29;;;;;;;9.90;6.37;;;;;;;;;;5092357;28;20214;-87
2024/02/08 02:13:58;;;;;;;65.50;41.33;;;;;;;;;;5091997;28;20543;-87
2024/02/08 02:16:26;;;;;;;16.00;11.33;;;;;;;;;;5074283;28;20287;-87
2024/02/08 02:18:53;;;;;;;8.53;6.70;;;;;;;;;;5091547;28;20780;-87
2024/02/08 02:21:21;;;;;;;6.63;5.67;;;;;;;;;;5091083;28;20291;-86
2024/02/08 02:23:52;;;;;;;5.83;4.53;;;;;;;;;;5091781;28;20200;-86
2024/02/08 02:26:19;;;;;;;8.63;7.50;;;;;;;;;;5074266;28;20212;-87
2024/02/08 02:28:48;;;;;;;6.17;5.30;;;;;;;;;;5074167;28;20201;-87
2024/02/08 02:31:16;;;;;;;4.60;3.97;;;;;;;;;;5091727;28;20351;-87
2024/02/08 02:33:44;;;;;;;6.00;4.97;;;;;;;;;;5075168;28;20195;-87
2024/02/08 02:36:14;;;;;;;6.27;4.47;;;;;;;;;;5094812;28;20234;-89
2024/02/08 02:38:44;;;;;;;5.90;5.27;;;;;;;;;;5103247;28;20216;-89
2024/02/08 02:41:11;;;;;;;6.07;4.90;;;;;;;;;;5104128;28;20224;-89
2024/02/08 02:43:39;;;;;;;6.13;4.57;;;;;;;;;;5074721;28;20200;-88
2024/02/08 02:46:06;;;;;;;5.33;4.43;;;;;;;;;;5103948;28;20200;-89
2024/02/08 02:48:34;;;;;;;9.57;6.67;;;;;;;;;;5092430;28;20238;-88
2024/02/08 02:51:01;;;;;;;7.67;5.17;;;;;;;;;;5102699;28;20195;-89
2024/02/08 02:53:30;;;;;;;8.90;5.80;;;;;;;;;;5092374;28;20203;-89
2024/02/08 02:55:59;;;;;;;6.67;4.93;;;;;;;;;;5095590;28;20200;-89
2024/02/08 02:58:26;;;;;;;7.40;5.10;;;;;;;;;;5092069;28;20262;-89
2024/02/08 03:01:04;;;;;;;9.37;5.10;;;;;;;;;;5092175;28;20244;-89
2024/02/08 03:03:37;;;;;;;6.03;5.37;;;;;;;;;;5090837;28;20200;-88
2024/02/08 03:06:13;;;;;;;11.77;6.07;;;;;;;;;;5093239;28;20281;-88
2024/02/08 03:08:41;;;;;;;26.93;18.57;;;;;;;;;;5094670;28;20200;-86
2024/02/08 03:11:11;;;;;;;13.13;10.30;;;;;;;;;;5096383;28;20593;-87
2024/02/08 03:13:41;;;;;;;7.27;6.57;;;;;;;;;;5095829;28;20196;-89
2024/02/08 03:16:10;;;;;;;5.67;4.97;;;;;;;;;;5091064;28;20207;-88
2024/02/08 03:18:43;;;;;;;5.93;4.70;;;;;;;;;;5095344;28;20280;-88
2024/02/08 03:21:11;;;;;;;7.70;6.13;;;;;;;;;;5096216;28;20204;-89
2024/02/08 03:23:38;;;;;;;9.20;6.00;;;;;;;;;;5094310;28;20239;-86
2024/02/08 03:26:07;;;;;;;7.20;5.83;;;;;;;;;;5095178;28;20208;-88
2024/02/08 03:28:35;;;;;;;9.40;4.70;;;;;;;;;;5095773;28;20291;-80
2024/02/08 03:31:08;;;;;;;7.77;5.07;;;;;;;;;;5115004;28;20227;-81
2024/02/08 03:33:37;;;;;;;8.10;6.20;;;;;;;;;;5114692;28;20199;-83
2024/02/08 03:36:06;;;;;;;20.47;14.10;;;;;;;;;;5114648;28;20199;-83
2024/02/08 03:38:34;;;;;;;13.40;8.00;;;;;;;;;;5114584;28;20753;-84
2024/02/08 03:41:04;;;;;;;9.27;5.53;;;;;;;;;;5115144;28;20242;-83
2024/02/08 03:43:32;;;;;;;8.60;5.83;;;;;;;;;;5114511;28;20568;-84
2024/02/08 03:46:04;;;;;;;14.57;11.10;;;;;;;;;;5114589;28;20199;-83
2024/02/08 03:48:32;;;;;;;34.70;17.57;;;;;;;;;;5114648;28;20246;-84
2024/02/08 03:51:00;;;;;;;14.27;11.67;;;;;;;;;;5114442;28;20239;-83
2024/02/08 03:53:27;;;;;;;12.67;8.57;;;;;;;;;;5114133;28;20207;-84
2024/02/08 03:55:55;;;;;;;15.57;8.20;;;;;;;;;;5114607;28;20210;-83
2024/02/08 03:58:23;;;;;;;8.77;6.73;;;;;;;;;;5114235;28;20715;-83
2024/02/08 04:00:53;;;;;;;8.03;6.37;;;;;;;;;;5113719;28;20207;-84
2024/02/08 04:03:43;;;;;;;8.60;5.87;;;;;;;;;;5095998;28;20225;-83
2024/02/08 04:06:26;;;;;;;8.47;5.37;;;;;;;;;;5113548;28;20207;-84
2024/02/08 04:09:08;;;;;;;8.60;5.00;;;;;;;;;;5081528;28;20199;-83
2024/02/08 04:55:51;;;;;;;6.37;4.53;;;;;;;;;;5097763;28;20688;-84
2024/02/08 04:58:18;;;;;;;5.33;4.83;;;;;;;;;;5077923;28;20290;-84
2024/02/08 05:00:46;;;;;;;5.83;4.53;;;;;;;;;;5112572;28;20287;-85
2024/02/08 05:03:16;;;;;;;6.67;5.40;;;;;;;;;;5098465;28;20286;-84
2024/02/08 05:05:44;;;;;;;5.60;4.80;;;;;;;;;;5099062;28;20208;-84
2024/02/08 05:08:13;;;;;;;8.30;5.10;;;;;;;;;;5088721;28;20291;-84
2024/02/08 05:10:40;;;;;;;8.13;5.77;;;;;;;;;;5094306;28;20661;-86
2024/02/08 05:13:08;;;;;;;13.13;5.63;;;;;;;;;;5098976;28;20594;-84
2024/02/08 05:15:35;;;;;;;8.73;5.90;;;;;;;;;;5109679;28;20216;-84
2024/02/08 05:18:02;;;;;;;6.17;5.57;;;;;;;;;;5112140;28;20608;-84
2024/02/08 05:20:29;;;;;;;10.17;5.87;;;;;;;;;;5095945;28;20220;-83
2024/02/08 05:23:00;;;;;;;9.33;6.67;;;;;;;;;;5084267;28;20196;-83
2024/02/08 05:25:28;;;;;;;8.87;7.07;;;;;;;;;;5095674;28;20298;-82
2024/02/08 05:27:55;;;;;;;7.60;6.27;;;;;;;;;;5073491;28;20204;-84
2024/02/08 05:30:25;;;;;;;7.27;5.50;;;;;;;;;;5091116;28;20239;-84
2024/02/08 05:32:52;;;;;;;6.10;4.90;;;;;;;;;;5083645;28;20706;-86
2024/02/08 05:35:19;;;;;;;5.83;4.27;;;;;;;;;;5102156;28;20219;-80
2024/02/08 05:37:46;;;;;;;5.40;4.90;;;;;;;;;;5112392;28;20226;-82
2024/02/08 05:40:14;;;;;;;6.23;4.97;;;;;;;;;;5103399;28;20717;-85
2024/02/08 05:42:44;;;;;;;6.77;4.83;;;;;;;;;;5093900;28;20203;-83
2024/02/08 05:45:19;;;;;;;4.97;4.43;;;;;;;;;;5104601;28;20742;-84
2024/02/08 05:47:49;;;;;;;5.23;4.73;;;;;;;;;;5095143;28;20673;-88
2024/02/08 05:50:22;;;;;;;6.20;5.10;;;;;;;;;;5089041;28;20659;-87
2024/02/08 05:52:56;;;;;;;6.37;4.83;;;;;;;;;;5058210;28;20214;-86
2024/02/08 05:55:24;;;;;;;5.37;4.87;;;;;;;;;;5093823;28;20298;-86
2024/02/08 05:57:53;;;;;;;11.20;4.83;;;;;;;;;;5080690;28;20694;-88
2024/02/08 06:00:32;;;;;;;8.73;4.10;;;;;;;;;;5112123;28;20288;-86
2024/02/08 06:03:05;;;;;;;6.33;5.23;;;;;;;;;;5111308;28;20237;-86
2024/02/08 06:05:32;;;;;;;8.00;4.33;;;;;;;;;;5112023;28;20303;-86
2024/02/08 06:07:59;;;;;;;8.50;4.93;;;;;;;;;;5107822;28;20212;-86
2024/02/08 06:10:41;;;;;;;6.20;5.00;;;;;;;;;;5102196;28;20227;-86
2024/02/08 06:13:13;;;;;;;4.70;4.30;;;;;;;;;;5092376;28;20204;-85
2024/02/08 06:15:43;;;;;;;7.73;5.87;;;;;;;;;;5104854;28;20316;-86
2024/02/08 06:18:19;;;;;;;9.17;6.80;;;;;;;;;;5098670;28;20584;-84
2024/02/08 06:20:51;;;;;;;6.60;4.73;;;;;;;;;;5109729;28;20701;-85
2024/02/08 06:23:22;;;;;;;5.50;4.93;;;;;;;;;;5091888;28;20211;-86
2024/02/08 06:28:33;;;;;;;6.67;5.77;;;;;;;;;;5090560;28;20200;-85
2024/02/08 06:31:06;;;;;;;8.57;5.57;;;;;;;;;;5111665;28;20235;-86
2024/02/08 06:33:42;;;;;;;7.40;6.40;;;;;;;;;;5110973;28;20280;-86
2024/02/08 06:36:08;;;;;;;18.33;7.87;;;;;;;;;;5100546;28;20260;-85
2024/02/08 06:38:43;;;;;;;33.87;18.53;;;;;;;;;;5111281;28;20196;-86
2024/02/08 06:41:23;;;;;;;24.97;15.87;;;;;;;;;;5101459;28;20216;-86
2024/02/08 06:43:57;;;;;;;25.03;12.70;;;;;;;;;;5116175;28;20206;-86
2024/02/08 06:46:47;;;;;;;24.13;14.60;;;;;;;;;;5095516;28;20216;-86
2024/02/08 07:39:30;;;;;;;7.73;7.03;;;;;;;;;;5103345;28;20693;-85
2024/02/08 07:41:53;;;;;;;8.67;5.90;;;;;;;;;;5103391;28;20644;-85
2024/02/08 07:44:22;;;;;;;13.03;8.80;;;;;;;;;;5101424;28;20199;-85
2024/02/08 07:46:54;;;;;;;14.23;8.10;;;;;;;;;;5114444;28;20671;-85
2024/02/08 07:49:41;;;;;;;13.00;7.27;;;;;;;;;;5114907;28;20210;-85
2024/02/08 07:52:14;;;;;;;12.90;8.80;;;;;;;;;;5098807;28;20214;-85
2024/02/08 07:54:42;;;;;;;13.57;8.23;;;;;;;;;;5103279;28;20217;-85
2024/02/08 07:57:11;;;;;;;10.97;8.03;;;;;;;;;;5114089;28;20199;-85
2024/02/08 07:59:39;;;;;;;18.73;7.60;;;;;;;;;;5114326;28;20223;-85
2024/02/08 08:02:12;;;;;;;9.77;7.40;;;;;;;;;;5101123;28;20382;-85
2024/02/08 08:04:51;;;;;;;13.90;7.77;;;;;;;;;;5113803;28;20195;-85
2024/02/08 08:07:22;;;;;;;12.00;7.70;;;;;;;;;;5114122;28;20294;-85
2024/02/08 08:09:59;;;;;;;8.23;6.37;;;;;;;;;;5114289;28;20203;-85
2024/02/08 08:12:29;;;;;;;11.80;6.90;;;;;;;;;;5102230;28;20210;-85
2024/02/08 08:15:13;;;;;;;14.97;8.07;;;;;;;;;;5100000;28;20215;-86
2024/02/08 08:17:43;;;;;;;12.43;7.83;;;;;;;;;;5114306;28;20202;-85
2024/02/08 08:20:56;;;;;;;50.43;23.90;;;;;;;;;;5100084;28;20223;-85
2024/02/08 08:23:07;;;;;;;16.53;9.50;;;;;;;;;;5113564;28;20209;-86
2024/02/08 08:25:59;;;;;;;17.37;11.97;;;;;;;;;;5103966;28;20197;-86
2024/02/08 08:28:39;;;;;;;18.43;12.53;;;;;;;;;;5100833;28;20219;-85
2024/02/08 08:31:34;;;;;;;10.43;7.93;;;;;;;;;;5113732;28;20227;-85
2024/02/08 08:34:00;;;;;;;13.90;10.10;;;;;;;;;;5113457;28;20204;-86
2024/02/08 08:36:34;;;;;;;9.60;6.77;;;;;;;;;;5107302;28;20226;-85
2024/02/08 08:41:46;;;;;;;8.37;7.10;;;;;;;;;;5101755;28;20293;-86
2024/02/08 08:44:15;;;;;;;13.07;9.13;;;;;;;;;;5100222;28;20215;-86
2024/02/08 08:46:42;;;;;;;14.47;9.37;;;;;;;;;;5113651;28;20588;-86
2024/02/08 08:49:14;;;;;;;12.03;8.70;;;;;;;;;;5099805;28;20208;-85
2024/02/08 08:51:43;;;;;;;9.20;7.63;;;;;;;;;;5113771;28;20210;-86
2024/02/08 08:54:19;;;;;;;7.10;6.40;;;;;;;;;;5108642;28;20573;-86
2024/02/08 08:56:49;;;;;;;7.53;6.23;;;;;;;;;;5106358;28;20241;-85
2024/02/08 08:59:19;;;;;;;7.63;5.30;;;;;;;;;;5112857;28;20633;-86
2024/02/08 09:01:48;;;;;;;6.10;5.10;;;;;;;;;;5112789;28;20202;-86
2024/02/08 09:04:25;;;;;;;10.23;8.27;;;;;;;;;;5100908;28;20196;-85
2024/02/08 09:06:54;;;;;;;10.77;7.80;;;;;;;;;;5113339;28;20210;-85
2024/02/08 09:12:05;;;;;;;11.00;7.57;;;;;;;;;;5094398;28;20211;-86
2024/02/08 09:14:32;;;;;;;7.03;6.27;;;;;;;;;;5100420;28;20196;-86
2024/02/08 09:16:59;;;;;;;6.77;5.37;;;;;;;;;;5111515;28;20203;-85
2024/02/08 09:19:29;;;;;;;8.30;5.47;;;;;;;;;;5112775;28;20214;-86
2024/02/08 09:21:59;;;;;;;10.63;6.97;;;;;;;;;;5112695;28;20590;-86
2024/02/08 09:24:26;;;;;;;22.07;12.20;;;;;;;;;;5099637;28;20235;-86
2024/02/08 09:27:15;;;;;;;9.67;5.97;;;;;;;;;;5099500;28;20283;-86
2024/02/08 09:29:42;;;;;;;6.63;5.30;;;;;;;;;;5112902;28;20228;-86
2024/02/08 09:32:32;;;;;;;7.47;4.60;;;;;;;;;;5113038;28;20243;-86
2024/02/08 09:34:58;;;;;;;6.53;5.00;;;;;;;;;;5112737;28;20583;-86
2024/02/08 09:37:29;;;;;;;5.80;4.87;;;;;;;;;;5112170;28;20677;-87
2024/02/08 09:39:59;;;;;;;7.80;5.43;;;;;;;;;;5091978;28;20610;-86
2024/02/08 09:42:27;;;;;;;6.30;5.67;;;;;;;;;;5106232;28;20682;-87
2024/02/08 09:44:59;;;;;;;6.83;5.20;;;;;;;;;;5100418;28;20820;-86
2024/02/08 09:47:31;;;;;;;7.07;5.27;;;;;;;;;;5112158;28;20200;-87
2024/02/08 09:50:00;;;;;;;7.33;5.40;;;;;;;;;;5112409;28;20215;-86
2024/02/08 09:52:30;;;;;;;9.70;7.00;;;;;;;;;;5108806;28;20207;-87
2024/02/08 09:55:06;;;;;;;9.17;6.97;;;;;;;;;;5102938;28;20208;-86
2024/02/08 09:57:45;;;;;;;15.10;7.23;;;;;;;;;;5098676;28;20228;-85
2024/02/08 10:00:34;;;;;;;9.03;7.43;;;;;;;;;;5111403;28;20226;-86
2024/02/08 10:03:04;;;;;;;10.63;6.20;;;;;;;;;;5102796;28;20247;-86
2024/02/08 10:05:52;;;;;;;10.30;6.87;;;;;;;;;;5093413;28;20689;-86
2024/02/08 10:08:28;;;;;;;17.63;12.23;;;;;;;;;;5106791;28;20207;-86
2024/02/08 10:11:11;;;;;;;12.00;8.73;;;;;;;;;;5112006;28;20199;-85
2024/02/08 10:13:53;;;;;;;11.10;7.47;;;;;;;;;;5111799;28;20229;-86
2024/02/08 10:16:29;;;;;;;12.90;8.30;;;;;;;;;;5111310;28;20203;-86
2024/02/08 10:19:02;;;;;;;14.07;7.33;;;;;;;;;;5099871;28;20256;-88
2024/02/08 10:21:30;;;;;;;10.37;7.43;;;;;;;;;;5111661;28;20736;-87
2024/02/08 10:24:13;;;;;;;12.87;8.77;;;;;;;;;;5111984;28;20640;-87
2024/02/08 10:26:40;;;;;;;11.07;7.17;;;;;;;;;;5093866;28;20578;-86
2024/02/08 10:29:08;;;;;;;12.27;7.70;;;;;;;;;;5103105;28;20211;-86
2024/02/08 10:31:37;;;;;;;9.03;7.87;;;;;;;;;;5112097;28;20228;-86
2024/02/08 10:34:09;;;;;;;10.43;8.27;;;;;;;;;;5099065;28;20204;-86
2024/02/08 10:36:39;;;;;;;13.30;7.73;;;;;;;;;;5098757;28;20226;-86
2024/02/08 10:39:23;;;;;;;11.47;9.20;;;;;;;;;;5112095;28;20203;-86
2024/02/08 10:41:57;;;;;;;12.90;8.67;;;;;;;;;;5112049;28;20227;-86
2024/02/08 10:44:29;;;;;;;12.40;9.00;;;;;;;;;;5107306;28;20243;-86
2024/02/08 10:47:06;;;;;;;14.67;10.83;;;;;;;;;;5103438;28;20207;-85
2024/02/08 10:49:41;;;;;;;20.23;10.57;;;;;;;;;;5091738;28;20721;-86
2024/02/08 10:52:11;;;;;;;11.33;9.03;;;;;;;;;;5106053;28;20295;-86
2024/02/08 10:54:42;;;;;;;15.43;8.93;;;;;;;;;;5103844;28;20591;-86
2024/02/08 10:57:33;;;;;;;16.40;11.57;;;;;;;;;;5093797;28;20207;-87
2024/02/08 10:59:58;;;;;;;30.90;22.23;;;;;;;;;;5111043;28;20205;-89
2024/02/08 11:02:35;;;;;;;22.90;14.80;;;;;;;;;;5111229;28;20662;-86
2024/02/08 11:05:17;;;;;;;20.80;14.37;;;;;;;;;;5097797;28;20207;-87
2024/02/08 11:07:45;;;;;;;15.73;10.50;;;;;;;;;;5111548;28;20298;-87
2024/02/08 11:10:20;;;;;;;17.47;11.30;;;;;;;;;;5111516;28;20199;-86
2024/02/08 11:12:51;;;;;;;14.10;10.10;;;;;;;;;;5111651;28;20214;-86
2024/02/08 11:15:29;;;;;;;15.67;10.50;;;;;;;;;;5110532;28;20211;-86
2024/02/08 11:17:57;;;;;;;15.13;9.67;;;;;;;;;;5111151;28;20657;-87
2024/02/08 11:20:33;;;;;;;28.10;19.13;;;;;;;;;;5097941;28;20219;-86
2024/02/08 11:23:09;;;;;;;23.13;11.63;;;;;;;;;;5111461;28;20207;-87
2024/02/08 11:25:44;;;;;;;16.73;12.60;;;;;;;;;;5101657;28;20204;-87
2024/02/08 11:28:12;;;;;;;11.10;6.97;;;;;;;;;;5112088;28;20594;-86
2024/02/08 11:30:40;;;;;;;19.73;11.23;;;;;;;;;;5115276;28;20264;-86
2024/02/08 11:33:12;;;;;;;31.57;19.40;;;;;;;;;;5114693;28;20701;-86
2024/02/08 11:35:45;;;;;;;16.63;8.10;;;;;;;;;;5115115;28;20207;-86
2024/02/08 11:38:16;;;;;;;7.70;6.27;;;;;;;;;;5101316;28;20234;-86
2024/02/08 11:40:47;;;;;;;14.30;9.70;;;;;;;;;;5114486;28;20245;-86
2024/02/08 11:43:23;;;;;;;26.07;13.23;;;;;;;;;;5115497;28;20654;-87
2024/02/08 11:45:52;;;;;;;26.43;15.60;;;;;;;;;;5111773;28;20199;-86
2024/02/08 11:48:26;;;;;;;20.17;11.87;;;;;;;;;;5104290;28;20621;-86
2024/02/08 11:50:55;;;;;;;15.50;9.13;;;;;;;;;;5114472;28;20209;-87
2024/02/08 11:53:32;;;;;;;18.03;11.77;;;;;;;;;;5114583;28;20196;-85
2024/02/08 11:56:08;;;;;;;20.20;12.27;;;;;;;;;;5107862;28;20589;-88
2024/02/08 11:58:41;;;;;;;14.27;10.20;;;;;;;;;;5109484;28;20268;-87
2024/02/08 12:01:09;;;;;;;18.00;10.13;;;;;;;;;;5114715;28;20306;-85
2024/02/08 12:03:41;;;;;;;14.40;9.97;;;;;;;;;;5114830;28;20207;-86
2024/02/08 12:06:08;;;;;;;14.13;9.13;;;;;;;;;;5114101;28;20204;-86
2024/02/08 12:08:35;;;;;;;20.90;9.97;;;;;;;;;;5101056;28;20214;-87
2024/02/08 12:11:04;;;;;;;7.60;6.87;;;;;;;;;;5114455;28;20643;-86
2024/02/08 12:13:38;;;;;;;43.30;26.20;;;;;;;;;;5114507;28;20199;-87
2024/02/08 12:16:06;;;;;;;51.70;26.03;;;;;;;;;;5114295;28;20198;-85
2024/02/08 12:18:32;;;;;;;143.30;57.77;;;;;;;;;;5114072;28;20220;-86
2024/02/08 12:21:01;;;;;;;47.00;18.73;;;;;;;;;;5114564;28;20292;-86
2024/02/08 12:23:30;;;;;;;13.60;11.63;;;;;;;;;;5099570;28;20663;-86
2024/02/08 12:26:01;;;;;;;9.47;8.57;;;;;;;;;;5113980;28;20616;-86
2024/02/08 12:28:31;;;;;;;11.30;10.17;;;;;;;;;;5093622;28;20200;-86
2024/02/08 12:30:59;;;;;;;10.17;6.27;;;;;;;;;;5107270;28;20231;-87
2024/02/08 12:33:28;;;;;;;9.63;6.50;;;;;;;;;;5106292;28;20291;-87
2024/02/08 12:35:58;;;;;;;7.67;5.87;;;;;;;;;;5107091;28;20681;-87
2024/02/08 12:38:25;;;;;;;8.93;6.00;;;;;;;;;;5093450;28;20211;-85
2024/02/08 12:40:52;;;;;;;7.93;7.13;;;;;;;;;;5106755;28;20223;-87
2024/02/08 12:43:19;;;;;;;6.67;5.80;;;;;;;;;;5102187;28;20225;-86
2024/02/08 12:45:53;;;;;;;8.50;5.47;;;;;;;;;;5113424;28;20639;-86
2024/02/08 12:48:21;;;;;;;7.60;5.93;;;;;;;;;;5113924;28;20644;-87
2024/02/08 12:50:52;;;;;;;10.20;4.87;;;;;;;;;;5109834;28;20208;-86
2024/02/08 12:53:21;;;;;;;11.40;8.77;;;;;;;;;;5093338;28;20215;-86
2024/02/08 12:55:49;;;;;;;9.27;5.90;;;;;;;;;;5097856;28;20206;-87
2024/02/08 12:58:19;;;;;;;7.27;5.30;;;;;;;;;;5113722;28;20648;-87
2024/02/08 13:00:58;;;;;;;6.63;6.03;;;;;;;;;;5113110;28;20231;-86
2024/02/08 13:03:26;;;;;;;8.17;7.30;;;;;;;;;;5113215;28;20651;-87
2024/02/08 13:05:53;;;;;;;13.67;10.80;;;;;;;;;;5113246;28;20268;-86
2024/02/08 13:08:21;;;;;;;7.70;6.90;;;;;;;;;;5113454;28;20268;-86
2024/02/08 13:10:55;;;;;;;14.77;10.80;;;;;;;;;;5113175;28;20700;-86
2024/02/08 13:13:24;;;;;;;22.27;8.83;;;;;;;;;;5111140;28;20235;-87
2024/02/08 13:15:58;;;;;;;14.47;10.40;;;;;;;;;;5102376;28;20207;-87
2024/02/08 13:18:29;;;;;;;24.30;15.17;;;;;;;;;;5108925;28;20667;-86
2024/02/08 13:20:57;;;;;;;20.43;14.47;;;;;;;;;;5092793;28;20315;-86
2024/02/08 13:23:23;;;;;;;6.50;5.20;;;;;;;;;;5105967;28;20291;-87
2024/02/08 13:25:54;;;;;;;25.63;18.00;;;;;;;;;;5104406;28;20215;-86
2024/02/08 13:28:23;;;;;;;18.53;13.63;;;;;;;;;;5099273;28;20196;-87
2024/02/08 13:30:51;;;;;;;8.67;6.23;;;;;;;;;;5112446;28;20227;-86
2024/02/08 13:33:18;;;;;;;8.83;4.40;;;;;;;;;;5106196;28;20289;-87
2024/02/08 13:35:46;;;;;;;13.07;10.20;;;;;;;;;;5106123;28;20708;-87
2024/02/08 13:38:15;;;;;;;5.63;4.33;;;;;;;;;;5099741;28;20203;-87
2024/02/08 13:40:44;;;;;;;6.73;5.83;;;;;;;;;;5098099;28;20633;-87
2024/02/08 13:43:11;;;;;;;8.23;6.93;;;;;;;;;;5112500;28;20202;-87
2024/02/08 13:45:40;;;;;;;5.63;4.83;;;;;;;;;;5112351;28;20328;-86
2024/02/08 13:48:12;;;;;;;5.93;4.47;;;;;;;;;;5112481;28;20210;-87
2024/02/08 13:50:43;;;;;;;6.47;4.97;;;;;;;;;;5111324;28;20195;-87
2024/02/08 13:53:14;;;;;;;8.63;5.13;;;;;;;;;;5112716;28;20681;-86
2024/02/08 13:55:45;;;;;;;4.80;4.23;;;;;;;;;;5111820;28;20685;-87
2024/02/08 13:58:13;;;;;;;6.43;4.70;;;;;;;;;;5112509;28;20682;-87
2024/02/08 14:00:41;;;;;;;5.57;4.37;;;;;;;;;;5097975;28;20208;-85
2024/02/08 14:03:09;;;;;;;3.63;3.33;;;;;;;;;;5112568;28;20207;-86
2024/02/08 14:05:39;;;;;;;4.73;3.87;;;;;;;;;;5111836;28;20211;-86
2024/02/08 14:08:09;;;;;;;3.90;3.27;;;;;;;;;;5112723;28;20286;-86
2024/02/08 14:10:37;;;;;;;5.93;4.57;;;;;;;;;;5112039;28;20231;-88
2024/02/08 14:13:09;;;;;;;4.77;3.77;;;;;;;;;;5112168;28;20203;-87
2024/02/08 14:15:45;;;;;;;4.60;4.00;;;;;;;;;;5111947;28;20639;-87
2024/02/08 14:18:22;;;;;;;4.37;3.67;;;;;;;;;;5096898;28;20200;-87
2024/02/08 14:20:56;;;;;;;5.37;3.43;;;;;;;;;;5101895;28;20229;-87
2024/02/08 14:23:31;;;;;;;6.37;4.20;;;;;;;;;;5112413;28;20207;-87
2024/02/08 14:26:09;;;;;;;4.17;3.63;;;;;;;;;;5112192;28;20210;-86
2024/02/08 14:28:42;;;;;;;7.60;4.70;;;;;;;;;;5104517;28;20211;-88
2024/02/08 14:31:10;;;;;;;7.23;5.27;;;;;;;;;;5106938;28;20716;-87
2024/02/08 14:33:37;;;;;;;6.73;4.43;;;;;;;;;;5111433;28;20665;-87
2024/02/08 14:36:07;;;;;;;7.00;5.60;;;;;;;;;;5098434;28;20200;-86
2024/02/08 14:38:34;;;;;;;9.83;6.53;;;;;;;;;;5111898;28;20211;-87
2024/02/08 14:41:05;;;;;;;11.40;9.33;;;;;;;;;;5111439;28;20191;-87
2024/02/08 14:43:32;;;;;;;16.43;14.73;;;;;;;;;;5111394;28;20234;-86
2024/02/08 14:46:00;;;;;;;6.03;4.80;;;;;;;;;;5107608;28;20648;-86
2024/02/08 14:48:28;;;;;;;6.90;4.70;;;;;;;;;;5102747;28;20207;-86
2024/02/08 14:51:05;;;;;;;8.10;5.90;;;;;;;;;;5111456;28;20207;-86
2024/02/08 14:53:32;;;;;;;6.17;5.43;;;;;;;;;;5111788;28;20262;-87
2024/02/08 14:56:01;;;;;;;8.83;5.77;;;;;;;;;;5111569;28;20195;-87
2024/02/08 14:58:32;;;;;;;6.90;4.53;;;;;;;;;;5111593;28;20280;-87
2024/02/08 15:01:08;;;;;;;8.43;5.00;;;;;;;;;;5106216;28;20236;-86
2024/02/08 15:03:38;;;;;;;4.90;4.33;;;;;;;;;;5109437;28;20199;-87
2024/02/08 15:06:06;;;;;;;5.20;3.97;;;;;;;;;;5104367;28;20203;-87
2024/02/08 15:08:47;;;;;;;14.93;5.37;;;;;;;;;;5115601;28;20229;-87
2024/02/08 15:11:46;;;;;;;8.03;5.63;;;;;;;;;;5103287;28;20298;-86
2024/02/08 15:14:18;;;;;;;11.27;6.63;;;;;;;;;;5105607;28;20252;-87
2024/02/08 15:16:46;;;;;;;11.03;5.10;;;;;;;;;;5101995;28;20195;-87
2024/02/08 15:19:13;;;;;;;10.17;4.00;;;;;;;;;;5115632;28;20204;-87
2024/02/08 15:21:40;;;;;;;7.97;7.20;;;;;;;;;;5115543;28;20307;-88
2024/02/08 15:24:21;;;;;;;26.53;19.47;;;;;;;;;;5104338;28;20284;-87
2024/02/08 15:27:04;;;;;;;8.87;8.07;;;;;;;;;;5101267;28;20211;-87
2024/02/08 15:29:35;;;;;;;6.40;5.80;;;;;;;;;;5115632;28;20213;-86
2024/02/08 15:32:10;;;;;;;11.40;7.77;;;;;;;;;;5106057;28;20242;-87
2024/02/08 15:34:46;;;;;;;15.77;9.27;;;;;;;;;;5108377;28;20203;-87
2024/02/08 15:37:20;;;;;;;12.93;10.37;;;;;;;;;;5095064;28;20586;-87
2024/02/08 15:39:58;;;;;;;5.83;5.27;;;;;;;;;;5095399;28;20200;-87
2024/02/08 15:42:35;;;;;;;8.00;4.90;;;;;;;;;;5109229;28;20276;-88
2024/02/08 15:45:10;;;;;;;9.57;5.83;;;;;;;;;;5115511;28;20206;-87
2024/02/08 15:47:54;;;;;;;24.30;16.77;;;;;;;;;;5115379;28;20293;-87
2024/02/08 15:50:24;;;;;;;17.37;10.93;;;;;;;;;;5102674;28;20219;-87
2024/02/08 15:52:53;;;;;;;13.70;9.07;;;;;;;;;;5101755;28;20205;-87
2024/02/08 15:55:24;;;;;;;13.93;11.47;;;;;;;;;;5100829;28;20287;-88
2024/02/08 15:58:16;;;;;;;14.53;11.87;;;;;;;;;;5114931;28;20201;-86
2024/02/08 16:03:27;;;;;;;22.27;19.10;;;;;;;;;;5094519;28;20271;-87
2024/02/08 16:05:56;;;;;;;19.57;15.50;;;;;;;;;;5114955;28;20209;-87
2024/02/08 16:08:32;;;;;;;38.43;26.37;;;;;;;;;;5114615;28;20267;-87
2024/02/08 16:11:18;;;;;;;24.10;14.60;;;;;;;;;;5114959;28;20217;-87
2024/02/08 16:13:53;;;;;;;20.93;14.50;;;;;;;;;;5113872;28;20210;-88
2024/02/08 16:16:23;;;;;;;16.33;12.83;;;;;;;;;;5115092;28;20229;-87
2024/02/08 16:18:58;;;;;;;11.17;7.53;;;;;;;;;;5101733;28;20300;-87
2024/02/08 16:21:30;;;;;;;32.97;26.10;;;;;;;;;;5100885;28;20209;-87
2024/02/08 16:24:12;;;;;;;13.30;9.47;;;;;;;;;;5114266;28;20210;-87
2024/02/08 16:26:44;;;;;;;5.43;3.97;;;;;;;;;;5114079;28;20201;-87
2024/02/08 16:29:18;;;;;;;6.70;4.30;;;;;;;;;;5102341;28;20235;-87
2024/02/08 16:31:54;;;;;;;13.90;10.03;;;;;;;;;;5100279;28;20245;-86
2024/02/08 16:34:34;;;;;;;10.07;8.47;;;;;;;;;;5114066;28;20201;-87
2024/02/08 16:37:03;;;;;;;6.80;5.70;;;;;;;;;;5114433;28;20682;-87
2024/02/08 16:39:55;;;;;;;11.20;9.50;;;;;;;;;;5110148;28;20205;-87
2024/02/08 16:42:34;;;;;;;6.63;5.93;;;;;;;;;;5093274;28;20231;-88
2024/02/08 16:45:17;;;;;;;10.10;7.23;;;;;;;;;;5104375;28;20207;-85